sensor_id;sensor_type;location;lat;lon;timestamp;temperature;humidity
22645;DHT22;11489;50.834;6.752;2023-04-25T00:01:17;7.40;90.40
22645;DHT22;11489;50.834;6.752;2023-04-25T00:03:44;7.40;90.30
22645;DHT22;11489;50.834;6.752;2023-04-25T00:06:11;7.40;90.40
22645;DHT22;11489;50.834;6.752;2023-04-25T00:08:37;7.40;90.40
22645;DHT22;11489;50.834;6.752;2023-04-25T00:11:03;7.30;90.30
22645;DHT22;11489;50.834;6.752;2023-04-25T00:13:29;7.30;90.30
22645;DHT22;11489;50.834;6.752;2023-04-25T00:15:55;7.30;90.30
22645;DHT22;11489;50.834;6.752;2023-04-25T00:18:22;7.30;90.20
22645;DHT22;11489;50.834;6.752;2023-04-25T00:20:48;7.20;90.10
22645;DHT22;11489;50.834;6.752;2023-04-25T00:23:15;7.20;90.10
22645;DHT22;11489;50.834;6.752;2023-04-25T00:25:44;7.20;90.10
22645;DHT22;11489;50.834;6.752;2023-04-25T00:28:11;7.10;90.10
22645;DHT22;11489;50.834;6.752;2023-04-25T00:30:37;7.00;90.10
22645;DHT22;11489;50.834;6.752;2023-04-25T00:33:03;7.00;90.10
22645;DHT22;11489;50.834;6.752;2023-04-25T00:35:29;6.90;90.10
22645;DHT22;11489;50.834;6.752;2023-04-25T00:37:54;6.80;90.10
22645;DHT22;11489;50.834;6.752;2023-04-25T00:40:20;6.80;90.10
22645;DHT22;11489;50.834;6.752;2023-04-25T00:42:46;6.70;90.10
22645;DHT22;11489;50.834;6.752;2023-04-25T00:45:14;6.60;90.10
22645;DHT22;11489;50.834;6.752;2023-04-25T00:47:41;6.60;90.10
22645;DHT22;11489;50.834;6.752;2023-04-25T00:50:07;6.50;90.20
22645;DHT22;11489;50.834;6.752;2023-04-25T00:52:34;6.50;90.20
22645;DHT22;11489;50.834;6.752;2023-04-25T00:55:00;6.40;90.20
22645;DHT22;11489;50.834;6.752;2023-04-25T00:57:25;6.30;90.20
22645;DHT22;11489;50.834;6.752;2023-04-25T00:59:52;6.20;90.30
22645;DHT22;11489;50.834;6.752;2023-04-25T01:02:18;6.20;90.30
22645;DHT22;11489;50.834;6.752;2023-04-25T01:04:44;6.10;90.40
22645;DHT22;11489;50.834;6.752;2023-04-25T01:07:10;6.10;90.50
22645;DHT22;11489;50.834;6.752;2023-04-25T01:09:36;6.10;90.60
22645;DHT22;11489;50.834;6.752;2023-04-25T01:12:02;6.00;90.60
22645;DHT22;11489;50.834;6.752;2023-04-25T01:14:28;6.00;90.70
22645;DHT22;11489;50.834;6.752;2023-04-25T01:16:55;5.90;90.70
22645;DHT22;11489;50.834;6.752;2023-04-25T01:19:21;5.80;90.70
22645;DHT22;11489;50.834;6.752;2023-04-25T01:21:47;5.80;90.70
22645;DHT22;11489;50.834;6.752;2023-04-25T01:24:13;5.80;90.80
22645;DHT22;11489;50.834;6.752;2023-04-25T01:26:40;5.70;90.80
22645;DHT22;11489;50.834;6.752;2023-04-25T01:29:09;5.70;90.80
22645;DHT22;11489;50.834;6.752;2023-04-25T01:31:36;5.60;90.80
22645;DHT22;11489;50.834;6.752;2023-04-25T01:34:02;5.60;90.80
22645;DHT22;11489;50.834;6.752;2023-04-25T01:36:28;5.60;90.80
22645;DHT22;11489;50.834;6.752;2023-04-25T01:38:53;5.50;90.80
22645;DHT22;11489;50.834;6.752;2023-04-25T01:41:20;5.50;90.90
22645;DHT22;11489;50.834;6.752;2023-04-25T01:43:48;5.40;90.90
22645;DHT22;11489;50.834;6.752;2023-04-25T01:46:14;5.40;91.00
22645;DHT22;11489;50.834;6.752;2023-04-25T01:48:40;5.40;91.00
22645;DHT22;11489;50.834;6.752;2023-04-25T01:51:06;5.40;91.20
22645;DHT22;11489;50.834;6.752;2023-04-25T01:53:32;5.30;91.10
22645;DHT22;11489;50.834;6.752;2023-04-25T01:55:57;5.30;91.20
22645;DHT22;11489;50.834;6.752;2023-04-25T01:58:23;5.30;91.20
22645;DHT22;11489;50.834;6.752;2023-04-25T02:00:49;5.30;91.20
22645;DHT22;11489;50.834;6.752;2023-04-25T02:03:14;5.30;91.20
22645;DHT22;11489;50.834;6.752;2023-04-25T02:05:40;5.30;91.30
22645;DHT22;11489;50.834;6.752;2023-04-25T02:08:07;5.30;91.40
22645;DHT22;11489;50.834;6.752;2023-04-25T02:10:33;5.20;91.40
22645;DHT22;11489;50.834;6.752;2023-04-25T02:12:59;5.20;91.40
22645;DHT22;11489;50.834;6.752;2023-04-25T02:15:25;5.20;91.40
22645;DHT22;11489;50.834;6.752;2023-04-25T02:17:51;5.20;91.40
22645;DHT22;11489;50.834;6.752;2023-04-25T02:20:21;5.20;91.50
22645;DHT22;11489;50.834;6.752;2023-04-25T02:22:48;5.20;91.60
22645;DHT22;11489;50.834;6.752;2023-04-25T02:25:13;5.20;91.70
22645;DHT22;11489;50.834;6.752;2023-04-25T02:27:39;5.20;91.80
22645;DHT22;11489;50.834;6.752;2023-04-25T02:30:05;5.20;91.90
22645;DHT22;11489;50.834;6.752;2023-04-25T02:32:32;5.20;92.00
22645;DHT22;11489;50.834;6.752;2023-04-25T02:35:00;5.20;92.00
22645;DHT22;11489;50.834;6.752;2023-04-25T02:37:30;5.30;92.10
22645;DHT22;11489;50.834;6.752;2023-04-25T02:39:56;5.40;92.10
22645;DHT22;11489;50.834;6.752;2023-04-25T02:42:22;5.40;92.10
22645;DHT22;11489;50.834;6.752;2023-04-25T02:44:47;5.40;92.00
22645;DHT22;11489;50.834;6.752;2023-04-25T02:47:13;5.50;92.00
22645;DHT22;11489;50.834;6.752;2023-04-25T02:49:39;5.50;92.00
22645;DHT22;11489;50.834;6.752;2023-04-25T02:52:05;5.50;92.00
22645;DHT22;11489;50.834;6.752;2023-04-25T02:54:31;5.50;92.00
22645;DHT22;11489;50.834;6.752;2023-04-25T02:56:57;5.60;92.00
22645;DHT22;11489;50.834;6.752;2023-04-25T02:59:25;5.60;92.00
22645;DHT22;11489;50.834;6.752;2023-04-25T03:01:51;5.60;92.10
22645;DHT22;11489;50.834;6.752;2023-04-25T03:04:16;5.70;92.20
22645;DHT22;11489;50.834;6.752;2023-04-25T03:06:44;5.70;92.20
22645;DHT22;11489;50.834;6.752;2023-04-25T03:09:09;5.80;92.20
22645;DHT22;11489;50.834;6.752;2023-04-25T03:11:38;5.80;92.20
22645;DHT22;11489;50.834;6.752;2023-04-25T03:14:04;5.80;92.20
22645;DHT22;11489;50.834;6.752;2023-04-25T03:16:29;5.90;92.30
22645;DHT22;11489;50.834;6.752;2023-04-25T03:18:56;5.90;92.30
22645;DHT22;11489;50.834;6.752;2023-04-25T03:21:22;5.90;92.40
22645;DHT22;11489;50.834;6.752;2023-04-25T03:23:48;6.00;92.40
22645;DHT22;11489;50.834;6.752;2023-04-25T03:26:13;6.00;92.40
22645;DHT22;11489;50.834;6.752;2023-04-25T03:28:39;6.10;92.40
22645;DHT22;11489;50.834;6.752;2023-04-25T03:31:05;6.10;92.30
22645;DHT22;11489;50.834;6.752;2023-04-25T03:33:31;6.10;92.20
22645;DHT22;11489;50.834;6.752;2023-04-25T03:35:57;6.20;92.20
22645;DHT22;11489;50.834;6.752;2023-04-25T03:38:23;6.20;92.20
22645;DHT22;11489;50.834;6.752;2023-04-25T03:40:49;6.20;92.10
22645;DHT22;11489;50.834;6.752;2023-04-25T03:43:16;6.20;92.10
22645;DHT22;11489;50.834;6.752;2023-04-25T03:45:41;6.30;92.10
22645;DHT22;11489;50.834;6.752;2023-04-25T03:48:07;6.30;92.10
22645;DHT22;11489;50.834;6.752;2023-04-25T03:50:34;6.30;92.10
22645;DHT22;11489;50.834;6.752;2023-04-25T03:52:59;6.30;92.00
22645;DHT22;11489;50.834;6.752;2023-04-25T03:55:25;6.30;92.00
22645;DHT22;11489;50.834;6.752;2023-04-25T03:57:51;6.30;92.00
22645;DHT22;11489;50.834;6.752;2023-04-25T04:00:16;6.40;92.00
22645;DHT22;11489;50.834;6.752;2023-04-25T04:02:42;6.40;92.00
22645;DHT22;11489;50.834;6.752;2023-04-25T04:05:08;6.40;92.00
22645;DHT22;11489;50.834;6.752;2023-04-25T04:07:33;6.40;92.00
22645;DHT22;11489;50.834;6.752;2023-04-25T04:10:06;6.40;92.00
22645;DHT22;11489;50.834;6.752;2023-04-25T04:12:32;6.40;92.00
22645;DHT22;11489;50.834;6.752;2023-04-25T04:14:57;6.40;91.90
22645;DHT22;11489;50.834;6.752;2023-04-25T04:17:23;6.40;91.90
22645;DHT22;11489;50.834;6.752;2023-04-25T04:19:48;6.30;91.90
22645;DHT22;11489;50.834;6.752;2023-04-25T04:22:15;6.40;91.90
22645;DHT22;11489;50.834;6.752;2023-04-25T04:24:41;6.40;91.90
22645;DHT22;11489;50.834;6.752;2023-04-25T04:27:09;6.30;91.90
22645;DHT22;11489;50.834;6.752;2023-04-25T04:29:35;6.30;91.90
22645;DHT22;11489;50.834;6.752;2023-04-25T04:32:02;6.30;92.00
22645;DHT22;11489;50.834;6.752;2023-04-25T04:34:29;6.30;92.00
22645;DHT22;11489;50.834;6.752;2023-04-25T04:36:54;6.30;92.00
22645;DHT22;11489;50.834;6.752;2023-04-25T04:39:20;6.30;92.00
22645;DHT22;11489;50.834;6.752;2023-04-25T04:41:46;6.30;92.00
22645;DHT22;11489;50.834;6.752;2023-04-25T04:44:12;6.30;92.10
22645;DHT22;11489;50.834;6.752;2023-04-25T04:46:38;6.30;92.10
22645;DHT22;11489;50.834;6.752;2023-04-25T04:49:09;6.30;92.10
22645;DHT22;11489;50.834;6.752;2023-04-25T04:51:35;6.30;92.10
22645;DHT22;11489;50.834;6.752;2023-04-25T04:54:02;6.40;92.20
22645;DHT22;11489;50.834;6.752;2023-04-25T04:56:29;6.40;92.20
22645;DHT22;11489;50.834;6.752;2023-04-25T04:58:59;6.40;92.20
22645;DHT22;11489;50.834;6.752;2023-04-25T05:01:26;6.40;92.20
22645;DHT22;11489;50.834;6.752;2023-04-25T05:03:52;6.40;92.20
22645;DHT22;11489;50.834;6.752;2023-04-25T05:06:20;6.40;92.30
22645;DHT22;11489;50.834;6.752;2023-04-25T05:08:46;6.50;92.30
22645;DHT22;11489;50.834;6.752;2023-04-25T05:11:12;6.50;92.40
22645;DHT22;11489;50.834;6.752;2023-04-25T05:13:37;6.50;92.30
22645;DHT22;11489;50.834;6.752;2023-04-25T05:16:03;6.60;92.40
22645;DHT22;11489;50.834;6.752;2023-04-25T05:18:29;6.60;92.30
22645;DHT22;11489;50.834;6.752;2023-04-25T05:20:55;6.60;92.30
22645;DHT22;11489;50.834;6.752;2023-04-25T05:23:20;6.60;92.30
22645;DHT22;11489;50.834;6.752;2023-04-25T05:25:46;6.70;92.30
22645;DHT22;11489;50.834;6.752;2023-04-25T05:28:12;6.70;92.40
22645;DHT22;11489;50.834;6.752;2023-04-25T05:30:38;6.80;92.30
22645;DHT22;11489;50.834;6.752;2023-04-25T05:33:04;6.80;92.30
22645;DHT22;11489;50.834;6.752;2023-04-25T05:35:30;6.80;92.30
22645;DHT22;11489;50.834;6.752;2023-04-25T05:37:56;6.80;92.30
22645;DHT22;11489;50.834;6.752;2023-04-25T05:40:21;6.90;92.30
22645;DHT22;11489;50.834;6.752;2023-04-25T05:42:47;6.90;92.30
22645;DHT22;11489;50.834;6.752;2023-04-25T05:45:13;6.90;92.40
22645;DHT22;11489;50.834;6.752;2023-04-25T05:47:38;7.00;92.40
22645;DHT22;11489;50.834;6.752;2023-04-25T05:50:05;7.00;92.40
22645;DHT22;11489;50.834;6.752;2023-04-25T05:52:31;7.00;92.40
22645;DHT22;11489;50.834;6.752;2023-04-25T05:54:58;7.10;92.40
22645;DHT22;11489;50.834;6.752;2023-04-25T05:57:26;7.10;92.40
22645;DHT22;11489;50.834;6.752;2023-04-25T05:59:53;7.10;92.40
22645;DHT22;11489;50.834;6.752;2023-04-25T06:02:20;7.20;92.40
22645;DHT22;11489;50.834;6.752;2023-04-25T06:04:49;7.20;92.60
22645;DHT22;11489;50.834;6.752;2023-04-25T06:07:15;7.30;92.70
22645;DHT22;11489;50.834;6.752;2023-04-25T06:09:40;7.40;92.70
22645;DHT22;11489;50.834;6.752;2023-04-25T06:12:06;7.50;92.70
22645;DHT22;11489;50.834;6.752;2023-04-25T06:14:35;7.50;92.50
22645;DHT22;11489;50.834;6.752;2023-04-25T06:17:02;7.60;92.70
22645;DHT22;11489;50.834;6.752;2023-04-25T06:19:37;7.70;92.60
22645;DHT22;11489;50.834;6.752;2023-04-25T06:22:03;7.70;92.30
22645;DHT22;11489;50.834;6.752;2023-04-25T06:24:28;7.80;92.30
22645;DHT22;11489;50.834;6.752;2023-04-25T06:26:54;7.70;92.30
22645;DHT22;11489;50.834;6.752;2023-04-25T06:29:20;7.80;92.40
22645;DHT22;11489;50.834;6.752;2023-04-25T06:31:46;7.80;92.50
22645;DHT22;11489;50.834;6.752;2023-04-25T06:34:12;7.90;92.70
22645;DHT22;11489;50.834;6.752;2023-04-25T06:36:37;8.00;92.60
22645;DHT22;11489;50.834;6.752;2023-04-25T06:39:03;8.00;92.40
22645;DHT22;11489;50.834;6.752;2023-04-25T06:41:29;8.10;92.40
22645;DHT22;11489;50.834;6.752;2023-04-25T06:43:54;8.10;92.50
22645;DHT22;11489;50.834;6.752;2023-04-25T06:46:20;8.20;92.50
22645;DHT22;11489;50.834;6.752;2023-04-25T06:48:46;8.30;92.60
22645;DHT22;11489;50.834;6.752;2023-04-25T06:51:11;8.40;92.40
22645;DHT22;11489;50.834;6.752;2023-04-25T06:53:39;8.40;92.20
22645;DHT22;11489;50.834;6.752;2023-04-25T06:56:05;8.40;92.10
22645;DHT22;11489;50.834;6.752;2023-04-25T06:58:31;8.50;92.10
22645;DHT22;11489;50.834;6.752;2023-04-25T07:00:57;8.50;92.10
22645;DHT22;11489;50.834;6.752;2023-04-25T07:03:22;8.50;91.90
22645;DHT22;11489;50.834;6.752;2023-04-25T07:05:49;8.60;92.30
22645;DHT22;11489;50.834;6.752;2023-04-25T07:08:15;8.60;92.20
22645;DHT22;11489;50.834;6.752;2023-04-25T07:10:41;8.70;92.30
22645;DHT22;11489;50.834;6.752;2023-04-25T07:13:07;8.70;92.20
22645;DHT22;11489;50.834;6.752;2023-04-25T07:15:33;8.80;92.20
22645;DHT22;11489;50.834;6.752;2023-04-25T07:17:58;8.80;92.00
22645;DHT22;11489;50.834;6.752;2023-04-25T07:20:24;8.90;92.00
22645;DHT22;11489;50.834;6.752;2023-04-25T07:22:50;8.90;92.10
22645;DHT22;11489;50.834;6.752;2023-04-25T07:25:16;9.00;92.00
22645;DHT22;11489;50.834;6.752;2023-04-25T07:27:42;9.00;92.00
22645;DHT22;11489;50.834;6.752;2023-04-25T07:30:08;9.00;91.80
22645;DHT22;11489;50.834;6.752;2023-04-25T07:32:35;9.10;91.80
22645;DHT22;11489;50.834;6.752;2023-04-25T07:35:00;9.00;91.70
22645;DHT22;11489;50.834;6.752;2023-04-25T07:37:27;9.10;91.60
22645;DHT22;11489;50.834;6.752;2023-04-25T07:39:53;9.10;91.70
22645;DHT22;11489;50.834;6.752;2023-04-25T07:42:18;9.10;91.50
22645;DHT22;11489;50.834;6.752;2023-04-25T07:44:44;9.20;91.30
22645;DHT22;11489;50.834;6.752;2023-04-25T07:47:10;9.20;91.20
22645;DHT22;11489;50.834;6.752;2023-04-25T07:49:36;9.20;91.60
22645;DHT22;11489;50.834;6.752;2023-04-25T07:52:04;9.30;91.80
22645;DHT22;11489;50.834;6.752;2023-04-25T07:54:31;9.30;91.90
22645;DHT22;11489;50.834;6.752;2023-04-25T07:56:58;9.50;91.80
22645;DHT22;11489;50.834;6.752;2023-04-25T07:59:24;9.60;91.90
22645;DHT22;11489;50.834;6.752;2023-04-25T08:01:49;9.70;91.70
22645;DHT22;11489;50.834;6.752;2023-04-25T08:04:16;9.80;91.70
22645;DHT22;11489;50.834;6.752;2023-04-25T08:06:42;9.80;91.30
22645;DHT22;11489;50.834;6.752;2023-04-25T08:09:08;9.90;91.10
22645;DHT22;11489;50.834;6.752;2023-04-25T08:11:35;10.00;91.10
22645;DHT22;11489;50.834;6.752;2023-04-25T08:14:01;10.00;90.90
22645;DHT22;11489;50.834;6.752;2023-04-25T08:16:27;10.00;90.60
22645;DHT22;11489;50.834;6.752;2023-04-25T08:18:53;10.00;90.50
22645;DHT22;11489;50.834;6.752;2023-04-25T08:21:19;10.10;90.60
22645;DHT22;11489;50.834;6.752;2023-04-25T08:23:44;10.10;90.40
22645;DHT22;11489;50.834;6.752;2023-04-25T08:26:13;10.10;90.30
22645;DHT22;11489;50.834;6.752;2023-04-25T08:28:43;10.20;90.20
22645;DHT22;11489;50.834;6.752;2023-04-25T08:31:08;10.20;90.90
22645;DHT22;11489;50.834;6.752;2023-04-25T08:33:34;10.40;90.90
22645;DHT22;11489;50.834;6.752;2023-04-25T08:36:02;10.40;90.80
22645;DHT22;11489;50.834;6.752;2023-04-25T08:38:28;10.50;90.70
22645;DHT22;11489;50.834;6.752;2023-04-25T08:40:54;10.60;90.80
22645;DHT22;11489;50.834;6.752;2023-04-25T08:43:20;10.70;90.40
22645;DHT22;11489;50.834;6.752;2023-04-25T08:45:47;10.80;90.60
22645;DHT22;11489;50.834;6.752;2023-04-25T08:48:14;11.00;90.50
22645;DHT22;11489;50.834;6.752;2023-04-25T08:50:52;11.00;90.10
22645;DHT22;11489;50.834;6.752;2023-04-25T08:53:29;11.10;89.20
22645;DHT22;11489;50.834;6.752;2023-04-25T08:56:00;11.20;87.60
22645;DHT22;11489;50.834;6.752;2023-04-25T08:58:30;11.30;89.20
22645;DHT22;11489;50.834;6.752;2023-04-25T09:00:56;11.40;88.50
22645;DHT22;11489;50.834;6.752;2023-04-25T09:03:22;11.40;87.90
22645;DHT22;11489;50.834;6.752;2023-04-25T09:05:48;11.50;87.80
22645;DHT22;11489;50.834;6.752;2023-04-25T09:08:14;11.50;86.90
22645;DHT22;11489;50.834;6.752;2023-04-25T09:10:40;11.60;86.90
22645;DHT22;11489;50.834;6.752;2023-04-25T09:13:08;11.60;86.90
22645;DHT22;11489;50.834;6.752;2023-04-25T09:15:55;11.60;87.50
22645;DHT22;11489;50.834;6.752;2023-04-25T09:18:31;11.70;84.40
22645;DHT22;11489;50.834;6.752;2023-04-25T09:21:10;11.90;85.40
22645;DHT22;11489;50.834;6.752;2023-04-25T09:23:44;12.00;86.70
22645;DHT22;11489;50.834;6.752;2023-04-25T09:26:14;12.00;85.40
22645;DHT22;11489;50.834;6.752;2023-04-25T09:28:40;12.10;86.10
22645;DHT22;11489;50.834;6.752;2023-04-25T09:31:10;12.20;87.40
22645;DHT22;11489;50.834;6.752;2023-04-25T09:33:37;12.30;85.40
22645;DHT22;11489;50.834;6.752;2023-04-25T09:36:08;12.40;86.60
22645;DHT22;11489;50.834;6.752;2023-04-25T09:38:45;12.40;85.20
22645;DHT22;11489;50.834;6.752;2023-04-25T09:41:11;12.50;85.00
22645;DHT22;11489;50.834;6.752;2023-04-25T09:43:37;12.50;84.70
22645;DHT22;11489;50.834;6.752;2023-04-25T09:46:08;12.50;83.70
22645;DHT22;11489;50.834;6.752;2023-04-25T09:48:34;12.40;81.80
22645;DHT22;11489;50.834;6.752;2023-04-25T09:51:08;12.40;83.20
22645;DHT22;11489;50.834;6.752;2023-04-25T09:53:38;12.30;82.00
22645;DHT22;11489;50.834;6.752;2023-04-25T09:56:06;12.10;82.00
22645;DHT22;11489;50.834;6.752;2023-04-25T09:58:32;12.00;81.10
22645;DHT22;11489;50.834;6.752;2023-04-25T10:01:00;11.80;81.10
22645;DHT22;11489;50.834;6.752;2023-04-25T10:03:30;11.70;81.50
22645;DHT22;11489;50.834;6.752;2023-04-25T10:05:59;11.60;82.00
22645;DHT22;11489;50.834;6.752;2023-04-25T10:08:26;11.60;82.80
22645;DHT22;11489;50.834;6.752;2023-04-25T10:10:54;11.70;84.30
22645;DHT22;11489;50.834;6.752;2023-04-25T10:13:20;11.80;84.50
22645;DHT22;11489;50.834;6.752;2023-04-25T10:15:47;11.90;83.50
22645;DHT22;11489;50.834;6.752;2023-04-25T10:18:12;12.00;83.40
22645;DHT22;11489;50.834;6.752;2023-04-25T10:20:39;12.10;83.00
22645;DHT22;11489;50.834;6.752;2023-04-25T10:23:13;12.20;83.70
22645;DHT22;11489;50.834;6.752;2023-04-25T10:25:41;12.30;80.60
22645;DHT22;11489;50.834;6.752;2023-04-25T10:28:07;12.30;81.60
22645;DHT22;11489;50.834;6.752;2023-04-25T10:30:33;12.30;81.80
22645;DHT22;11489;50.834;6.752;2023-04-25T10:32:59;12.30;81.10
22645;DHT22;11489;50.834;6.752;2023-04-25T10:35:26;12.20;81.40
22645;DHT22;11489;50.834;6.752;2023-04-25T10:38:11;12.20;80.90
22645;DHT22;11489;50.834;6.752;2023-04-25T10:40:39;12.20;79.00
22645;DHT22;11489;50.834;6.752;2023-04-25T10:46:23;12.50;80.70
22645;DHT22;11489;50.834;6.752;2023-04-25T10:51:24;12.70;81.50
22645;DHT22;11489;50.834;6.752;2023-04-25T10:54:06;12.90;82.20
22645;DHT22;11489;50.834;6.752;2023-04-25T10:59:16;13.20;83.30
22645;DHT22;11489;50.834;6.752;2023-04-25T11:01:52;13.50;80.00
22645;DHT22;11489;50.834;6.752;2023-04-25T11:04:29;13.70;81.90
22645;DHT22;11489;50.834;6.752;2023-04-25T11:09:26;14.20;79.30
22645;DHT22;11489;50.834;6.752;2023-04-25T11:11:57;14.30;79.70
22645;DHT22;11489;50.834;6.752;2023-04-25T11:14:27;14.30;77.80
22645;DHT22;11489;50.834;6.752;2023-04-25T11:16:53;14.20;77.50
22645;DHT22;11489;50.834;6.752;2023-04-25T11:19:21;14.00;76.10
22645;DHT22;11489;50.834;6.752;2023-04-25T11:21:47;13.80;74.70
22645;DHT22;11489;50.834;6.752;2023-04-25T11:24:13;13.40;74.80
22645;DHT22;11489;50.834;6.752;2023-04-25T11:26:41;13.10;74.90
22645;DHT22;11489;50.834;6.752;2023-04-25T11:29:07;12.90;75.40
22645;DHT22;11489;50.834;6.752;2023-04-25T11:31:33;12.70;77.80
22645;DHT22;11489;50.834;6.752;2023-04-25T11:33:58;12.70;78.70
22645;DHT22;11489;50.834;6.752;2023-04-25T11:36:26;12.70;77.90
22645;DHT22;11489;50.834;6.752;2023-04-25T11:38:53;12.70;77.80
22645;DHT22;11489;50.834;6.752;2023-04-25T11:41:19;12.70;78.60
22645;DHT22;11489;50.834;6.752;2023-04-25T11:43:45;12.80;78.90
22645;DHT22;11489;50.834;6.752;2023-04-25T11:46:11;12.70;78.50
22645;DHT22;11489;50.834;6.752;2023-04-25T11:48:38;12.70;77.80
22645;DHT22;11489;50.834;6.752;2023-04-25T11:51:04;12.70;78.00
22645;DHT22;11489;50.834;6.752;2023-04-25T11:53:30;12.50;76.40
22645;DHT22;11489;50.834;6.752;2023-04-25T11:55:56;12.40;76.10
22645;DHT22;11489;50.834;6.752;2023-04-25T11:58:22;12.20;76.20
22645;DHT22;11489;50.834;6.752;2023-04-25T12:00:47;12.10;76.80
22645;DHT22;11489;50.834;6.752;2023-04-25T12:03:13;11.90;77.40
22645;DHT22;11489;50.834;6.752;2023-04-25T12:05:39;11.90;77.90
22645;DHT22;11489;50.834;6.752;2023-04-25T12:10:38;11.90;77.60
22645;DHT22;11489;50.834;6.752;2023-04-25T12:13:19;11.90;79.60
22645;DHT22;11489;50.834;6.752;2023-04-25T12:15:45;12.10;79.30
22645;DHT22;11489;50.834;6.752;2023-04-25T12:18:11;12.30;81.50
22645;DHT22;11489;50.834;6.752;2023-04-25T12:20:36;12.60;81.40
22645;DHT22;11489;50.834;6.752;2023-04-25T12:23:06;12.90;80.00
22645;DHT22;11489;50.834;6.752;2023-04-25T12:25:40;13.10;79.80
22645;DHT22;11489;50.834;6.752;2023-04-25T12:28:20;13.40;80.20
22645;DHT22;11489;50.834;6.752;2023-04-25T12:33:22;14.20;78.40
22645;DHT22;11489;50.834;6.752;2023-04-25T12:35:48;14.40;78.50
22645;DHT22;11489;50.834;6.752;2023-04-25T12:38:30;14.40;76.10
22645;DHT22;11489;50.834;6.752;2023-04-25T12:40:57;14.40;72.20
22645;DHT22;11489;50.834;6.752;2023-04-25T12:43:23;14.40;75.60
22645;DHT22;11489;50.834;6.752;2023-04-25T12:45:50;14.40;77.60
22645;DHT22;11489;50.834;6.752;2023-04-25T12:48:16;14.50;76.80
22645;DHT22;11489;50.834;6.752;2023-04-25T12:50:43;14.50;75.60
22645;DHT22;11489;50.834;6.752;2023-04-25T12:53:10;14.50;75.20
22645;DHT22;11489;50.834;6.752;2023-04-25T12:55:37;14.50;75.00
22645;DHT22;11489;50.834;6.752;2023-04-25T12:58:02;14.40;74.50
22645;DHT22;11489;50.834;6.752;2023-04-25T13:00:29;14.40;72.50
22645;DHT22;11489;50.834;6.752;2023-04-25T13:02:55;14.20;72.10
22645;DHT22;11489;50.834;6.752;2023-04-25T13:05:21;14.00;71.00
22645;DHT22;11489;50.834;6.752;2023-04-25T13:07:46;13.70;69.90
22645;DHT22;11489;50.834;6.752;2023-04-25T13:10:12;13.50;70.50
22645;DHT22;11489;50.834;6.752;2023-04-25T13:12:37;13.20;70.20
22645;DHT22;11489;50.834;6.752;2023-04-25T13:15:03;13.00;70.10
22645;DHT22;11489;50.834;6.752;2023-04-25T13:17:29;12.70;70.40
22645;DHT22;11489;50.834;6.752;2023-04-25T13:19:58;12.50;71.20
22645;DHT22;11489;50.834;6.752;2023-04-25T13:22:24;12.30;71.10
22645;DHT22;11489;50.834;6.752;2023-04-25T13:24:49;12.10;71.50
22645;DHT22;11489;50.834;6.752;2023-04-25T13:27:15;11.90;72.20
22645;DHT22;11489;50.834;6.752;2023-04-25T13:29:41;11.80;72.40
22645;DHT22;11489;50.834;6.752;2023-04-25T13:32:08;11.70;73.10
22645;DHT22;11489;50.834;6.752;2023-04-25T13:34:34;11.60;73.10
22645;DHT22;11489;50.834;6.752;2023-04-25T13:37:00;11.50;73.80
22645;DHT22;11489;50.834;6.752;2023-04-25T13:39:35;11.40;73.90
22645;DHT22;11489;50.834;6.752;2023-04-25T13:42:00;11.30;72.70
22645;DHT22;11489;50.834;6.752;2023-04-25T13:44:27;11.30;73.50
22645;DHT22;11489;50.834;6.752;2023-04-25T13:46:52;11.20;74.50
22645;DHT22;11489;50.834;6.752;2023-04-25T13:49:18;11.20;73.80
22645;DHT22;11489;50.834;6.752;2023-04-25T13:51:44;11.20;74.10
22645;DHT22;11489;50.834;6.752;2023-04-25T13:54:10;11.30;74.50
22645;DHT22;11489;50.834;6.752;2023-04-25T13:56:36;11.30;74.60
22645;DHT22;11489;50.834;6.752;2023-04-25T13:59:02;11.40;75.00
22645;DHT22;11489;50.834;6.752;2023-04-25T14:01:28;11.50;76.40
22645;DHT22;11489;50.834;6.752;2023-04-25T14:03:55;11.70;77.00
22645;DHT22;11489;50.834;6.752;2023-04-25T14:06:21;12.00;76.70
22645;DHT22;11489;50.834;6.752;2023-04-25T14:08:50;12.30;75.80
22645;DHT22;11489;50.834;6.752;2023-04-25T14:11:15;12.50;75.60
22645;DHT22;11489;50.834;6.752;2023-04-25T14:13:44;12.60;74.60
22645;DHT22;11489;50.834;6.752;2023-04-25T14:16:09;12.80;74.50
22645;DHT22;11489;50.834;6.752;2023-04-25T14:18:35;12.90;73.40
22645;DHT22;11489;50.834;6.752;2023-04-25T14:21:01;12.90;73.10
22645;DHT22;11489;50.834;6.752;2023-04-25T14:23:26;12.90;71.80
22645;DHT22;11489;50.834;6.752;2023-04-25T14:25:52;12.90;71.40
22645;DHT22;11489;50.834;6.752;2023-04-25T14:28:18;12.70;70.30
22645;DHT22;11489;50.834;6.752;2023-04-25T14:30:44;12.60;70.50
22645;DHT22;11489;50.834;6.752;2023-04-25T14:33:09;12.40;69.90
22645;DHT22;11489;50.834;6.752;2023-04-25T14:35:35;12.30;70.00
22645;DHT22;11489;50.834;6.752;2023-04-25T14:38:01;12.20;70.80
22645;DHT22;11489;50.834;6.752;2023-04-25T14:40:26;12.10;71.50
22645;DHT22;11489;50.834;6.752;2023-04-25T14:42:52;12.00;71.70
22645;DHT22;11489;50.834;6.752;2023-04-25T14:45:18;11.90;72.10
22645;DHT22;11489;50.834;6.752;2023-04-25T14:47:44;11.90;73.70
22645;DHT22;11489;50.834;6.752;2023-04-25T14:50:10;11.90;74.00
22645;DHT22;11489;50.834;6.752;2023-04-25T14:52:35;12.00;75.00
22645;DHT22;11489;50.834;6.752;2023-04-25T14:55:02;12.00;75.30
22645;DHT22;11489;50.834;6.752;2023-04-25T14:57:34;12.00;75.20
22645;DHT22;11489;50.834;6.752;2023-04-25T15:00:00;12.10;74.50
22645;DHT22;11489;50.834;6.752;2023-04-25T15:02:26;12.20;74.50
22645;DHT22;11489;50.834;6.752;2023-04-25T15:04:53;12.30;73.30
22645;DHT22;11489;50.834;6.752;2023-04-25T15:07:19;12.30;72.00
22645;DHT22;11489;50.834;6.752;2023-04-25T15:09:46;12.30;72.60
22645;DHT22;11489;50.834;6.752;2023-04-25T15:12:13;12.30;72.40
22645;DHT22;11489;50.834;6.752;2023-04-25T15:14:39;12.40;72.40
22645;DHT22;11489;50.834;6.752;2023-04-25T15:17:04;12.50;73.00
22645;DHT22;11489;50.834;6.752;2023-04-25T15:19:30;12.50;72.20
22645;DHT22;11489;50.834;6.752;2023-04-25T15:21:56;12.60;73.20
22645;DHT22;11489;50.834;6.752;2023-04-25T15:24:21;12.70;73.10
22645;DHT22;11489;50.834;6.752;2023-04-25T15:26:47;12.80;73.50
22645;DHT22;11489;50.834;6.752;2023-04-25T15:29:13;13.00;73.00
22645;DHT22;11489;50.834;6.752;2023-04-25T15:31:38;13.20;73.30
22645;DHT22;11489;50.834;6.752;2023-04-25T15:34:04;13.30;73.60
22645;DHT22;11489;50.834;6.752;2023-04-25T15:36:30;13.40;72.90
22645;DHT22;11489;50.834;6.752;2023-04-25T15:38:56;13.50;73.00
22645;DHT22;11489;50.834;6.752;2023-04-25T15:41:23;13.70;73.30
22645;DHT22;11489;50.834;6.752;2023-04-25T15:43:50;13.80;73.10
22645;DHT22;11489;50.834;6.752;2023-04-25T15:46:17;14.00;72.80
22645;DHT22;11489;50.834;6.752;2023-04-25T15:48:43;14.10;72.20
22645;DHT22;11489;50.834;6.752;2023-04-25T15:51:08;14.30;72.60
22645;DHT22;11489;50.834;6.752;2023-04-25T15:53:34;14.40;71.80